Time;durP1;ratioP1;P1;durP2;ratioP2;P2;SDS_P1;SDS_P2;PMS_P1;PMS_P2;Temp;Humidity;BMP_temperature;BMP_pressure;BME280_temperature;BME280_humidity;BME280_pressure;Samples;Min_cycle;Max_cycle;Signal;HPM_P1;HPM_P2
2022/04/25 00:00:08;;;;;;;8.00;1.73;;;6.10;67.70;;;;;;4102254;28;20519;-79
2022/04/25 00:02:10;;;;;;;10.35;2.08;;;6.10;67.80;;;;;;4088098;28;20039;-79
2022/04/25 00:04:10;;;;;;;10.70;1.70;;;6.00;68.30;;;;;;4089517;28;20031;-79
2022/04/25 00:06:11;;;;;;;14.38;2.22;;;6.00;68.50;;;;;;4089398;28;20097;-79
2022/04/25 00:08:12;;;;;;;4.10;1.60;;;6.00;68.40;;;;;;4103634;28;20105;-79
2022/04/25 00:10:13;;;;;;;8.00;1.58;;;6.00;68.30;;;;;;4088701;28;20046;-79
2022/04/25 00:12:14;;;;;;;10.50;1.77;;;6.00;68.40;;;;;;4107191;28;20142;-79
2022/04/25 00:14:15;;;;;;;5.80;1.75;;;6.00;68.20;;;;;;4102726;28;20046;-79
2022/04/25 00:16:18;;;;;;;6.70;1.65;;;6.10;68.10;;;;;;4087826;28;20070;-79
2022/04/25 00:18:19;;;;;;;5.28;1.95;;;6.00;68.20;;;;;;4086136;28;20387;-78
2022/04/25 00:20:20;;;;;;;8.75;1.65;;;6.00;68.20;;;;;;4103182;28;20041;-79
2022/04/25 00:22:21;;;;;;;9.40;1.95;;;6.00;68.30;;;;;;4092413;28;20028;-79
2022/04/25 00:24:21;;;;;;;5.88;1.40;;;6.00;68.40;;;;;;4104233;28;20026;-78
2022/04/25 00:26:25;;;;;;;12.07;2.55;;;6.00;68.40;;;;;;4091449;28;20521;-78
2022/04/25 00:28:25;;;;;;;7.68;1.70;;;6.10;68.50;;;;;;4093390;28;20113;-78
2022/04/25 00:30:28;;;;;;;11.60;1.80;;;6.00;68.70;;;;;;4080366;28;20069;-79
2022/04/25 00:32:29;;;;;;;6.90;1.92;;;6.00;68.60;;;;;;4100622;28;20035;-79
2022/04/25 00:34:29;;;;;;;8.80;1.90;;;6.00;68.70;;;;;;4089853;28;20062;-79
2022/04/25 00:36:30;;;;;;;7.47;2.55;;;5.90;68.90;;;;;;4086012;28;20066;-79
2022/04/25 00:38:31;;;;;;;7.35;1.67;;;5.90;69.30;;;;;;4091733;28;20500;-79
2022/04/25 00:40:32;;;;;;;6.32;1.90;;;5.90;69.30;;;;;;4088848;28;20554;-78
2022/04/25 00:42:32;;;;;;;9.25;1.92;;;5.90;69.20;;;;;;4089298;28;20035;-78
2022/04/25 00:44:33;;;;;;;5.57;1.92;;;5.90;69.00;;;;;;4092630;28;20030;-78
2022/04/25 00:46:36;;;;;;;7.13;1.70;;;5.90;68.80;;;;;;4087235;28;20039;-78
2022/04/25 00:48:36;;;;;;;8.32;2.20;;;6.00;68.60;;;;;;4090375;28;22317;-79
2022/04/25 00:50:39;;;;;;;3.35;1.65;;;6.00;68.40;;;;;;4087959;28;20103;-79
2022/04/25 00:52:40;;;;;;;9.00;2.60;;;6.00;68.30;;;;;;4085678;28;20035;-78
2022/04/25 00:54:41;;;;;;;6.47;1.60;;;6.00;68.00;;;;;;4089302;28;20201;-78
2022/04/25 00:56:42;;;;;;;6.13;1.77;;;6.00;68.00;;;;;;4087566;28;20583;-79
2022/04/25 00:58:44;;;;;;;9.25;1.73;;;6.00;67.80;;;;;;4091662;28;20036;-79
2022/04/25 01:00:46;;;;;;;7.90;1.75;;;6.00;67.70;;;;;;4080803;28;20027;-79
2022/04/25 01:02:47;;;;;;;8.25;1.48;;;6.10;67.70;;;;;;4089609;28;20102;-79
2022/04/25 01:04:47;;;;;;;15.48;1.75;;;6.10;67.60;;;;;;4091408;28;20031;-79
2022/04/25 01:06:48;;;;;;;4.00;1.42;;;6.10;67.40;;;;;;4093025;28;20122;-79
2022/04/25 01:08:51;;;;;;;3.42;1.42;;;6.10;67.30;;;;;;4094876;28;20031;-79
2022/04/25 01:10:52;;;;;;;9.05;1.60;;;6.10;67.20;;;;;;4091602;28;20097;-79
2022/04/25 01:12:53;;;;;;;7.68;1.48;;;6.10;67.10;;;;;;4088706;28;20043;-78
2022/04/25 01:15:02;;;;;;;3.67;1.40;;;6.10;67.10;;;;;;4094996;28;20074;-79
2022/04/25 01:17:03;;;;;;;11.05;1.70;;;6.10;67.10;;;;;;4089915;28;20058;-79
2022/04/25 01:19:04;;;;;;;7.50;1.73;;;6.10;67.60;;;;;;4096422;28;20031;-79
2022/04/25 01:21:09;;;;;;;6.65;1.95;;;6.10;67.90;;;;;;4093667;28;20039;-79
2022/04/25 01:28:01;;;;;;;8.02;2.08;;;6.10;69.00;;;;;;4095890;28;20039;-79
2022/04/25 01:30:03;;;;;;;9.45;1.90;;;6.10;69.00;;;;;;4091928;28;20031;-79
2022/04/25 01:32:05;;;;;;;13.55;2.22;;;6.10;69.10;;;;;;4092877;28;20031;-79
2022/04/25 01:34:05;;;;;;;7.53;1.50;;;6.10;69.20;;;;;;4090141;28;20200;-79
2022/04/25 01:36:06;;;;;;;8.60;2.05;;;6.10;69.20;;;;;;4086196;28;20019;-79
2022/04/25 01:38:07;;;;;;;7.07;1.63;;;6.10;69.20;;;;;;4095783;28;20023;-79
2022/04/25 01:40:08;;;;;;;6.35;1.70;;;6.10;69.10;;;;;;4095291;28;20038;-79
2022/04/25 01:42:09;;;;;;;6.30;2.08;;;6.10;69.10;;;;;;4106017;28;20026;-78
2022/04/25 01:44:10;;;;;;;4.30;1.15;;;6.10;69.40;;;;;;4107455;28;20023;-78
2022/04/25 01:46:11;;;;;;;4.20;1.60;;;6.10;69.30;;;;;;4089137;28;20024;-79
2022/04/25 01:48:11;;;;;;;6.05;1.73;;;6.10;69.10;;;;;;4096178;28;20054;-79
2022/04/25 01:50:12;;;;;;;4.60;1.60;;;6.10;69.10;;;;;;4070684;29;20888;-79
2022/04/25 01:52:24;;;;;;;4.45;1.58;;;6.10;69.40;;;;;;4110652;28;20436;-78
2022/04/25 01:54:26;;;;;;;6.85;1.70;;;6.10;69.50;;;;;;4090672;28;20214;-79
2022/04/25 01:56:28;;;;;;;5.72;1.98;;;6.10;69.80;;;;;;4091755;28;20802;-79
2022/04/25 01:58:37;;;;;;;6.07;2.22;;;6.10;69.80;;;;;;4095492;28;20408;-78
2022/04/25 02:00:39;;;;;;;9.52;2.05;;;6.10;69.90;;;;;;4100619;28;20027;-79
2022/04/25 02:02:40;;;;;;;6.90;2.13;;;6.10;70.00;;;;;;4103483;28;20039;-79
2022/04/25 02:04:41;;;;;;;7.22;1.80;;;6.10;70.00;;;;;;4092939;28;20042;-78
2022/04/25 02:06:42;;;;;;;7.78;2.00;;;6.10;70.40;;;;;;4094905;28;20663;-79
2022/04/25 02:08:43;;;;;;;6.63;1.80;;;6.10;70.50;;;;;;4109122;28;20054;-79
2022/04/25 02:11:19;;;;;;;11.70;2.08;;;6.10;70.30;;;;;;4090435;28;20035;-79
2022/04/25 02:13:04;;;;;;;5.63;2.10;;;6.00;70.50;;;;;;4088999;28;20039;-79
2022/04/25 02:15:12;;;;;;;;;;;6.00;70.80;;;;;;4086119;28;20128;-79
2022/04/25 02:17:16;;;;;;;9.07;1.88;;;6.00;71.40;;;;;;4090453;28;19915;-79
2022/04/25 02:19:16;;;;;;;9.20;2.10;;;6.00;71.00;;;;;;4088137;28;20031;-79
2022/04/25 02:21:17;;;;;;;10.55;2.53;;;6.00;71.00;;;;;;4088180;28;20036;-79
2022/04/25 02:23:18;;;;;;;7.15;1.90;;;5.90;71.10;;;;;;4108902;28;20023;-79
2022/04/25 02:25:19;;;;;;;8.40;2.00;;;5.90;71.40;;;;;;4088865;28;20648;-79
2022/04/25 02:27:21;;;;;;;16.20;2.10;;;5.90;71.60;;;;;;4095403;28;20126;-79
2022/04/25 02:29:22;;;;;;;6.82;2.20;;;5.90;71.50;;;;;;4088598;28;20031;-79
2022/04/25 02:31:26;;;;;;;6.13;1.80;;;5.90;71.60;;;;;;4094339;28;20049;-79
2022/04/25 02:33:27;;;;;;;4.05;1.80;;;5.90;71.60;;;;;;4092968;28;20523;-79
2022/04/25 02:35:28;;;;;;;8.88;2.13;;;5.80;71.60;;;;;;4089521;28;20086;-80
2022/04/25 02:37:30;;;;;;;10.43;2.05;;;5.80;72.00;;;;;;4102743;28;20045;-79
2022/04/25 02:39:31;;;;;;;6.13;1.88;;;5.80;71.70;;;;;;4089859;28;20042;-79
2022/04/25 02:41:33;;;;;;;8.13;1.83;;;5.80;71.80;;;;;;4091136;28;20031;-79
2022/04/25 02:43:41;;;;;;;6.72;1.75;;;5.80;72.00;;;;;;4091824;28;20061;-79
2022/04/25 02:45:42;;;;;;;11.10;2.13;;;5.80;72.00;;;;;;4091469;28;20031;-79
2022/04/25 02:47:44;;;;;;;7.60;2.22;;;5.80;72.10;;;;;;4097129;28;20023;-79
2022/04/25 02:49:45;;;;;;;7.78;2.33;;;5.90;72.00;;;;;;4093825;28;20066;-79
2022/04/25 02:51:45;;;;;;;8.60;1.80;;;5.80;71.90;;;;;;4087329;28;20510;-79
2022/04/25 02:53:46;;;;;;;9.27;2.20;;;5.80;71.90;;;;;;4094128;28;20051;-79
2022/04/25 02:55:47;;;;;;;7.30;1.88;;;5.80;71.90;;;;;;4090848;28;20095;-79
2022/04/25 02:57:48;;;;;;;7.10;1.83;;;5.80;72.10;;;;;;4094204;28;20114;-79
2022/04/25 02:59:48;;;;;;;7.07;1.67;;;5.80;71.80;;;;;;4088753;28;20115;-79
2022/04/25 03:01:49;;;;;;;5.57;1.67;;;5.80;71.80;;;;;;4086065;28;20050;-79
2022/04/25 03:03:49;;;;;;;8.23;2.03;;;5.80;71.80;;;;;;4088921;28;20042;-79
2022/04/25 03:05:51;;;;;;;8.70;2.20;;;5.80;71.80;;;;;;4089551;28;20043;-79
2022/04/25 03:07:52;;;;;;;4.63;1.75;;;5.70;71.90;;;;;;4094349;28;20423;-79
2022/04/25 03:09:53;;;;;;;10.80;1.83;;;5.70;72.00;;;;;;4095245;28;20039;-79
2022/04/25 03:11:53;;;;;;;2.75;1.65;;;5.80;71.90;;;;;;4091039;28;20031;-79
2022/04/25 03:13:54;;;;;;;6.78;1.90;;;5.70;71.90;;;;;;4096589;28;20153;-79
2022/04/25 03:15:55;;;;;;;13.95;2.28;;;5.80;71.80;;;;;;4082121;28;20051;-79
2022/04/25 03:17:56;;;;;;;9.82;1.75;;;5.80;71.60;;;;;;4094147;28;20027;-78
2022/04/25 03:19:57;;;;;;;7.47;1.77;;;5.80;71.80;;;;;;4093033;28;20039;-79
2022/04/25 03:21:58;;;;;;;5.32;1.35;;;5.80;71.60;;;;;;4091395;28;20078;-79
2022/04/25 03:23:59;;;;;;;5.57;1.55;;;5.70;71.70;;;;;;4088463;28;20034;-79
2022/04/25 03:25:59;;;;;;;8.98;1.80;;;5.70;71.80;;;;;;4095489;28;20031;-79
2022/04/25 03:28:00;;;;;;;7.65;1.77;;;5.70;71.60;;;;;;4092065;28;20073;-79
2022/04/25 03:30:01;;;;;;;8.70;1.73;;;5.80;71.50;;;;;;4107635;28;20470;-79
2022/04/25 03:32:02;;;;;;;9.88;1.85;;;5.70;71.30;;;;;;4093663;28;20055;-79
2022/04/25 03:34:03;;;;;;;5.53;1.80;;;5.70;71.30;;;;;;4096173;28;20503;-79
2022/04/25 03:36:04;;;;;;;4.00;1.45;;;5.80;71.20;;;;;;4089635;28;20376;-79
2022/04/25 03:38:06;;;;;;;2.13;1.30;;;5.70;71.10;;;;;;4093024;28;20039;-79
2022/04/25 03:40:09;;;;;;;6.05;1.70;;;5.80;70.90;;;;;;4095130;28;20576;-79
2022/04/25 03:42:10;;;;;;;;;;;5.80;71.00;;;;;;4112080;28;20027;-79
2022/04/25 03:44:10;;;;;;;4.70;2.00;;;5.80;70.90;;;;;;4096604;28;19942;-78
2022/04/25 03:46:12;;;;;;;5.95;1.42;;;5.80;70.70;;;;;;4104787;28;20038;-79
2022/04/25 03:48:13;;;;;;;7.53;2.08;;;5.80;70.80;;;;;;4106713;28;20031;-78
2022/04/25 03:50:15;;;;;;;2.42;1.30;;;5.80;70.80;;;;;;4096850;28;20027;-79
2022/04/25 03:52:16;;;;;;;4.28;1.65;;;5.80;70.70;;;;;;4095316;28;20083;-79
2022/04/25 03:57:09;;;;;;;7.32;1.55;;;5.90;70.60;;;;;;4103246;28;20023;-78
2022/04/25 03:58:56;;;;;;;6.70;1.52;;;5.90;70.40;;;;;;4083162;28;20131;-79
2022/04/25 04:00:57;;;;;;;9.20;1.77;;;5.90;70.30;;;;;;4093294;28;20161;-79
2022/04/25 04:02:58;;;;;;;4.95;2.00;;;5.90;70.10;;;;;;4095906;28;20106;-79
2022/04/25 04:05:00;;;;;;;6.40;2.00;;;5.90;70.10;;;;;;4093435;28;20035;-79
2022/04/25 04:07:02;;;;;;;4.80;1.60;;;5.80;69.90;;;;;;4087954;28;20036;-79
2022/04/25 04:09:44;;;;;;;7.80;1.70;;;5.80;70.00;;;;;;4095334;28;20047;-79
2022/04/25 04:11:46;;;;;;;8.38;2.22;;;5.80;70.00;;;;;;4090577;28;20035;-79
2022/04/25 04:13:45;;;;;;;3.75;1.50;;;5.80;70.10;;;;;;4098494;28;20026;-78
2022/04/25 04:15:46;;;;;;;5.55;2.00;;;5.80;69.90;;;;;;4085977;28;20101;-78
2022/04/25 04:17:47;;;;;;;7.00;1.83;;;5.80;70.00;;;;;;4088017;28;20035;-78
2022/04/25 04:19:48;;;;;;;7.32;2.03;;;5.80;70.30;;;;;;4092502;28;20027;-78
2022/04/25 04:21:48;;;;;;;6.63;1.90;;;5.70;70.30;;;;;;4089704;28;20069;-78
2022/04/25 04:23:49;;;;;;;7.38;2.25;;;5.70;70.50;;;;;;4092591;28;20428;-78
2022/04/25 04:25:50;;;;;;;4.20;1.95;;;5.70;71.00;;;;;;4088867;28;20106;-79
2022/04/25 04:27:50;;;;;;;7.75;2.38;;;5.60;71.10;;;;;;4087592;28;20027;-78
2022/04/25 04:29:51;;;;;;;7.95;2.17;;;5.70;71.00;;;;;;4088574;28;20043;-79
2022/04/25 04:31:52;;;;;;;10.23;2.15;;;5.60;71.40;;;;;;4102338;28;20031;-79
2022/04/25 04:33:52;;;;;;;5.05;2.53;;;5.60;71.50;;;;;;4091782;28;20035;-79
2022/04/25 04:38:12;;;;;;;5.63;1.98;;;5.60;71.60;;;;;;4090487;28;20039;-77
2022/04/25 04:40:28;;;;;;;7.88;2.10;;;5.70;71.60;;;;;;4091259;28;20043;-78
2022/04/25 04:42:29;;;;;;;10.15;2.10;;;5.70;71.70;;;;;;4087419;28;20051;-78
2022/04/25 04:44:29;;;;;;;6.38;2.13;;;5.80;71.70;;;;;;4090492;28;20145;-78
2022/04/25 04:46:30;;;;;;;6.05;2.45;;;5.80;71.60;;;;;;4086403;28;20066;-78
2022/04/25 04:48:31;;;;;;;8.60;2.38;;;5.80;71.20;;;;;;4089177;28;20114;-78
2022/04/25 04:50:31;;;;;;;6.30;2.10;;;5.80;71.00;;;;;;4086299;28;20075;-78
2022/04/25 04:52:32;;;;;;;11.15;2.33;;;5.80;70.80;;;;;;4077283;28;20034;-78
2022/04/25 04:54:33;;;;;;;5.35;2.13;;;5.80;70.60;;;;;;4094738;28;20145;-78
2022/04/25 04:56:34;;;;;;;6.05;2.13;;;5.80;70.40;;;;;;4091695;28;20046;-78
2022/04/25 04:58:34;;;;;;;3.97;1.70;;;5.90;70.30;;;;;;4084025;28;20062;-78
2022/04/25 05:00:35;;;;;;;4.82;2.05;;;5.90;70.20;;;;;;4079601;28;20183;-78
2022/04/25 05:02:36;;;;;;;4.97;2.08;;;5.90;69.90;;;;;;4100103;28;20035;-78
2022/04/25 05:04:38;;;;;;;3.65;1.70;;;5.90;69.60;;;;;;4097921;28;20395;-78
2022/04/25 05:06:39;;;;;;;14.10;2.30;;;6.00;69.50;;;;;;4094722;28;20114;-78
2022/04/25 05:08:40;;;;;;;3.05;1.77;;;6.00;69.30;;;;;;4112031;28;20046;-78
2022/04/25 05:10:41;;;;;;;3.28;1.73;;;6.10;69.20;;;;;;4094817;28;20031;-78
2022/04/25 05:12:47;;;;;;;6.78;1.70;;;6.10;68.90;;;;;;4084759;28;20480;-78
2022/04/25 05:14:48;;;;;;;9.00;2.13;;;6.10;68.70;;;;;;4096686;28;20050;-77
2022/04/25 05:16:48;;;;;;;8.55;1.80;;;6.10;68.40;;;;;;4089777;28;20031;-78
2022/04/25 05:18:49;;;;;;;6.30;2.20;;;6.20;68.20;;;;;;4098137;28;20030;-78
2022/04/25 05:20:50;;;;;;;4.93;2.05;;;6.20;68.00;;;;;;4100298;28;20023;-78
2022/04/25 05:22:51;;;;;;;4.40;2.25;;;6.30;68.20;;;;;;4106104;28;20091;-78
2022/04/25 05:24:52;;;;;;;6.43;2.08;;;6.30;67.70;;;;;;4094721;28;20142;-78
2022/04/25 05:26:53;;;;;;;4.18;1.90;;;6.40;67.40;;;;;;4104637;28;20035;-78
2022/04/25 05:28:53;;;;;;;4.93;1.60;;;6.50;67.10;;;;;;4095253;28;20114;-78
2022/04/25 05:30:55;;;;;;;2.58;1.65;;;6.50;65.80;;;;;;4107885;28;20071;-78
2022/04/25 05:33:06;;;;;;;4.68;2.22;;;6.50;65.00;;;;;;4106875;28;20553;-78
2022/04/25 05:35:08;;;;;;;4.30;2.03;;;6.60;65.00;;;;;;4106815;28;20041;-78
2022/04/25 05:37:09;;;;;;;3.95;1.80;;;6.60;64.40;;;;;;4095615;28;20113;-78
2022/04/25 05:39:10;;;;;;;5.55;1.80;;;6.60;63.80;;;;;;4097319;28;20440;-78
2022/04/25 05:41:11;;;;;;;6.78;1.80;;;6.70;64.20;;;;;;4096140;28;20035;-78
2022/04/25 05:43:12;;;;;;;5.57;1.60;;;6.80;64.40;;;;;;4095350;28;20035;-78
2022/04/25 05:45:18;;;;;;;5.03;1.50;;;6.80;63.80;;;;;;4080599;28;20031;-79
2022/04/25 05:47:18;;;;;;;4.78;2.00;;;6.90;63.40;;;;;;4091497;28;20513;-78
2022/04/25 05:53:58;;;;;;;2.85;1.88;;;7.00;62.70;;;;;;4093138;28;20785;-78
2022/04/25 05:55:59;;;;;;;5.05;1.63;;;7.10;62.70;;;;;;4096973;28;20110;-78
2022/04/25 05:58:02;;;;;;;4.03;1.95;;;7.10;62.60;;;;;;4086963;28;20058;-78
2022/04/25 06:00:07;;;;;;;8.48;1.90;;;7.10;62.70;;;;;;4090957;28;20052;-78
2022/04/25 06:02:07;;;;;;;4.68;2.00;;;7.20;62.80;;;;;;4097613;28;20031;-78
2022/04/25 06:04:08;;;;;;;6.47;1.80;;;7.20;62.60;;;;;;4090682;28;20029;-78
2022/04/25 06:06:09;;;;;;;3.03;1.92;;;7.20;61.70;;;;;;4098107;28;20051;-79
2022/04/25 06:08:10;;;;;;;3.35;1.70;;;7.30;61.50;;;;;;4100967;28;20162;-80
2022/04/25 06:10:13;;;;;;;5.15;1.77;;;7.40;61.40;;;;;;4099341;28;20043;-78
2022/04/25 06:12:14;;;;;;;3.03;1.95;;;7.50;61.80;;;;;;4115535;28;20023;-79
2022/04/25 06:14:15;;;;;;;4.18;2.00;;;7.50;61.60;;;;;;4096394;28;20098;-79
2022/04/25 06:16:15;;;;;;;4.80;1.55;;;7.60;61.70;;;;;;4095023;28;20058;-81
2022/04/25 06:18:16;;;;;;;4.53;1.75;;;7.60;61.40;;;;;;4100825;28;20039;-78
2022/04/25 06:20:17;;;;;;;3.58;1.55;;;7.70;61.00;;;;;;4097541;28;20466;-80
2022/04/25 06:22:19;;;;;;;2.63;1.40;;;7.70;60.50;;;;;;4076451;29;20059;-78
2022/04/25 06:24:20;;;;;;;2.78;1.50;;;7.70;60.00;;;;;;4101853;28;20110;-79
2022/04/25 06:26:20;;;;;;;3.53;1.50;;;7.80;60.20;;;;;;4096981;28;20039;-79
2022/04/25 06:28:21;;;;;;;3.42;1.65;;;7.90;59.40;;;;;;4098533;28;20134;-79
2022/04/25 06:30:23;;;;;;;4.82;1.92;;;7.90;59.10;;;;;;4101660;28;20031;-79
2022/04/25 06:32:25;;;;;;;7.40;2.00;;;7.80;59.10;;;;;;4099632;28;20027;-79
2022/04/25 06:34:25;;;;;;;7.57;1.80;;;7.90;59.40;;;;;;4098236;28;20071;-78
2022/04/25 06:36:26;;;;;;;4.88;1.80;;;7.90;59.40;;;;;;4096282;28;20040;-79
2022/04/25 06:38:27;;;;;;;3.53;1.90;;;8.10;59.40;;;;;;4099881;28;20027;-79
2022/04/25 06:40:27;;;;;;;6.50;2.20;;;8.00;59.00;;;;;;4097387;28;20031;-78
2022/04/25 06:42:28;;;;;;;6.50;1.90;;;8.00;59.00;;;;;;4097085;28;20055;-78
2022/04/25 06:44:30;;;;;;;4.70;1.85;;;8.10;59.10;;;;;;4096188;28;20225;-78
2022/04/25 06:46:30;;;;;;;4.45;2.08;;;8.10;58.90;;;;;;4099462;28;20542;-78
2022/04/25 06:48:31;;;;;;;3.08;1.80;;;8.10;58.70;;;;;;4094998;28;20035;-78
2022/04/25 06:50:32;;;;;;;5.55;2.00;;;8.10;58.70;;;;;;4111022;28;20023;-78
2022/04/25 06:52:33;;;;;;;5.18;1.85;;;8.10;58.60;;;;;;4110845;28;20586;-78
2022/04/25 06:54:35;;;;;;;4.22;1.90;;;8.20;58.90;;;;;;4096915;28;20130;-78
2022/04/25 06:56:36;;;;;;;2.37;1.47;;;8.20;58.10;;;;;;4110666;28;20030;-78
2022/04/25 06:58:37;;;;;;;2.35;1.35;;;8.20;57.30;;;;;;4102328;28;20027;-78
2022/04/25 07:00:38;;;;;;;3.63;1.27;;;8.30;57.00;;;;;;4102177;28;20125;-77
2022/04/25 07:02:39;;;;;;;6.18;1.60;;;8.20;56.70;;;;;;4103020;28;20031;-78
2022/04/25 07:04:40;;;;;;;5.13;2.38;;;8.10;56.50;;;;;;4093100;28;20045;-77
2022/04/25 07:06:41;;;;;;;6.10;1.67;;;8.20;57.20;;;;;;4110596;28;20074;-78
2022/04/25 07:08:41;;;;;;;6.40;1.58;;;8.30;58.10;;;;;;4100463;28;20127;-78
2022/04/25 07:10:42;;;;;;;3.78;1.40;;;8.30;56.90;;;;;;4097487;28;20199;-78
2022/04/25 07:12:43;;;;;;;2.42;1.25;;;8.40;56.80;;;;;;4109830;28;20034;-78
2022/04/25 07:14:43;;;;;;;3.38;1.80;;;8.40;57.00;;;;;;4091619;28;20140;-78
2022/04/25 07:16:48;;;;;;;1.95;1.38;;;8.50;57.30;;;;;;4110189;28;20022;-78
2022/04/25 07:18:48;;;;;;;2.47;1.50;;;8.50;57.10;;;;;;4112321;28;20117;-78
2022/04/25 07:20:49;;;;;;;4.40;1.88;;;8.50;56.70;;;;;;4094449;28;20042;-79
2022/04/25 07:29:48;;;;;;;3.90;1.73;;;8.60;55.40;;;;;;4095850;28;20091;-78
2022/04/25 07:31:50;;;;;;;3.33;1.70;;;8.60;55.90;;;;;;4096735;28;20038;-78
2022/04/25 07:33:56;;;;;;;5.15;1.58;;;8.50;55.80;;;;;;4108830;28;20094;-78
2022/04/25 07:35:57;;;;;;;6.65;2.00;;;8.60;56.30;;;;;;4097359;28;20134;-79
2022/04/25 07:37:57;;;;;;;7.07;1.90;;;8.60;55.70;;;;;;4109182;28;20034;-78
2022/04/25 07:39:58;;;;;;;3.92;1.63;;;8.70;56.00;;;;;;4109196;28;20026;-79
2022/04/25 07:41:59;;;;;;;2.95;1.70;;;8.70;55.80;;;;;;4097274;28;20030;-79
2022/04/25 07:43:59;;;;;;;2.38;1.45;;;8.80;56.40;;;;;;4093387;28;20026;-79
2022/04/25 07:46:01;;;;;;;2.88;1.45;;;8.70;55.40;;;;;;4095814;28;20103;-79
2022/04/25 07:48:01;;;;;;;2.13;1.50;;;8.80;55.60;;;;;;4111914;28;20034;-78
2022/04/25 07:50:03;;;;;;;3.92;1.88;;;8.80;55.50;;;;;;4093688;28;20050;-78
2022/04/25 07:52:04;;;;;;;3.65;1.40;;;8.80;55.50;;;;;;4091417;28;21373;-79
2022/04/25 07:54:05;;;;;;;3.95;1.90;;;8.90;55.60;;;;;;4094162;28;20035;-79
2022/04/25 07:56:05;;;;;;;3.50;1.77;;;9.00;55.10;;;;;;4094444;28;20428;-79
2022/04/25 07:58:09;;;;;;;2.80;1.70;;;8.90;54.50;;;;;;4106498;28;20058;-78
2022/04/25 08:00:10;;;;;;;11.18;2.15;;;9.00;54.60;;;;;;4092188;28;20043;-79
2022/04/25 08:02:11;;;;;;;4.20;1.85;;;8.90;54.20;;;;;;4097779;28;20035;-79
2022/04/25 08:04:11;;;;;;;4.22;1.98;;;8.90;54.40;;;;;;4113221;28;20045;-79
2022/04/25 08:06:12;;;;;;;7.15;1.95;;;9.00;54.60;;;;;;4099635;28;20031;-80
2022/04/25 08:08:13;;;;;;;7.47;1.65;;;9.10;55.00;;;;;;4098757;28;20031;-80
2022/04/25 08:10:14;;;;;;;5.28;1.70;;;9.10;54.40;;;;;;4100028;28;20099;-79
2022/04/25 08:17:56;;;;;;;4.60;1.63;;;9.20;54.90;;;;;;4102823;28;20027;-79
2022/04/25 08:19:14;;;;;;;3.10;1.52;;;9.30;54.60;;;;;;4105413;28;20090;-80
2022/04/25 08:21:15;;;;;;;4.05;2.10;;;9.40;54.50;;;;;;4095775;28;20031;-79
2022/04/25 08:23:16;;;;;;;6.68;1.70;;;9.40;54.30;;;;;;4108657;28;20057;-78
2022/04/25 08:25:17;;;;;;;4.53;2.08;;;9.40;54.00;;;;;;4097805;28;20070;-78
2022/04/25 08:27:18;;;;;;;4.00;1.88;;;9.40;53.90;;;;;;4091485;28;20090;-79
2022/04/25 08:29:19;;;;;;;6.05;1.90;;;9.40;54.90;;;;;;4090455;28;20039;-78
2022/04/25 08:31:21;;;;;;;5.28;1.88;;;9.50;54.00;;;;;;4094156;28;20341;-79
2022/04/25 08:33:21;;;;;;;6.30;1.95;;;9.60;54.00;;;;;;4104535;28;20046;-79
2022/04/25 08:35:23;;;;;;;8.88;1.98;;;9.60;53.40;;;;;;4096417;28;20048;-79
2022/04/25 08:37:24;;;;;;;6.60;2.03;;;9.60;53.60;;;;;;4094451;28;20039;-79
2022/04/25 08:39:24;;;;;;;4.20;2.30;;;9.70;54.30;;;;;;4096035;28;20027;-79
2022/04/25 08:41:31;;;;;;;4.90;2.40;;;9.60;53.60;;;;;;4095549;28;20046;-79
2022/04/25 08:43:32;;;;;;;6.68;2.33;;;9.70;52.90;;;;;;4096566;28;20035;-79
2022/04/25 08:45:34;;;;;;;6.30;2.10;;;9.70;53.40;;;;;;4091443;28;20027;-79
2022/04/25 08:47:51;;;;;;;4.88;1.95;;;9.80;54.10;;;;;;4092802;28;20048;-79
2022/04/25 08:49:51;;;;;;;5.22;2.58;;;9.70;53.10;;;;;;4091948;28;20039;-79
2022/04/25 08:51:58;;;;;;;5.97;2.30;;;9.70;53.60;;;;;;4106520;28;20031;-79
2022/04/25 08:54:01;;;;;;;7.32;2.47;;;9.80;54.30;;;;;;4107083;28;20065;-79
2022/04/25 08:56:03;;;;;;;3.47;1.88;;;9.80;53.90;;;;;;4096852;28;20051;-79
2022/04/25 08:58:05;;;;;;;3.10;2.00;;;9.90;54.40;;;;;;4095871;28;20063;-79
2022/04/25 09:00:07;;;;;;;8.40;2.30;;;10.00;54.50;;;;;;4094141;28;20023;-79
2022/04/25 09:02:10;;;;;;;7.63;2.28;;;10.00;54.00;;;;;;4092887;28;20039;-78
2022/04/25 09:04:10;;;;;;;13.13;2.28;;;10.10;53.90;;;;;;4095948;28;20035;-78
2022/04/25 09:06:11;;;;;;;4.38;2.00;;;10.20;54.20;;;;;;4094890;28;20061;-79
2022/04/25 09:08:12;;;;;;;4.10;2.38;;;10.20;53.00;;;;;;4095592;28;20042;-78
2022/04/25 09:10:15;;;;;;;5.82;2.47;;;10.10;52.10;;;;;;4110869;28;20031;-79
2022/04/25 09:12:17;;;;;;;;;;;10.30;52.80;;;;;;4094849;28;20039;-79
2022/04/25 09:14:18;;;;;;;5.47;2.30;;;10.20;53.40;;;;;;4090534;28;19910;-79
2022/04/25 09:16:19;;;;;;;5.30;2.10;;;10.30;52.80;;;;;;4098040;28;20114;-79
2022/04/25 09:18:20;;;;;;;3.50;2.10;;;10.40;52.40;;;;;;4095222;28;20127;-79
2022/04/25 09:20:22;;;;;;;4.97;2.45;;;10.50;52.40;;;;;;4094706;28;20039;-79
2022/04/25 09:22:34;;;;;;;4.75;2.13;;;10.40;52.00;;;;;;4096896;28;20037;-79
2022/04/25 09:24:46;;;;;;;6.07;2.60;;;10.50;52.40;;;;;;4095393;28;20059;-79
2022/04/25 09:26:49;;;;;;;10.95;3.17;;;10.60;51.80;;;;;;4094414;28;20039;-78
2022/04/25 09:28:52;;;;;;;;;;;10.50;51.40;;;;;;4096471;28;20027;-79
2022/04/25 09:30:59;;;;;;;6.93;2.47;;;10.50;51.20;;;;;;4106322;28;20420;-79
2022/04/25 09:32:59;;;;;;;5.00;2.17;;;10.60;51.20;;;;;;4097489;28;20058;-79
2022/04/25 09:35:29;;;;;;;5.53;2.47;;;10.60;52.10;;;;;;4090580;28;20043;-79
2022/04/25 09:37:47;;;;;;;4.38;2.40;;;10.60;51.50;;;;;;4111847;28;20124;-79
2022/04/25 09:39:48;;;;;;;5.03;2.63;;;10.70;52.40;;;;;;4095857;28;20028;-79
2022/04/25 09:41:49;;;;;;;3.45;2.28;;;10.80;52.00;;;;;;4093753;28;20058;-79
2022/04/25 09:43:58;;;;;;;11.65;3.28;;;10.80;51.90;;;;;;4112585;28;20027;-79
2022/04/25 09:46:04;;;;;;;6.78;2.80;;;11.00;51.60;;;;;;4098669;28;20572;-79
2022/04/25 09:48:24;;;;;;;4.63;2.60;;;10.90;51.30;;;;;;4113277;28;20037;-79
2022/04/25 09:50:27;;;;;;;7.97;3.05;;;11.00;50.60;;;;;;4114208;28;20558;-79
2022/04/25 09:52:28;;;;;;;4.25;2.67;;;11.00;50.60;;;;;;4095460;28;20077;-78
2022/04/25 09:54:29;;;;;;;5.75;3.15;;;11.00;51.50;;;;;;4099432;28;20270;-79
2022/04/25 09:56:31;;;;;;;4.85;2.90;;;11.10;51.50;;;;;;4112100;28;20027;-79
2022/04/25 09:58:31;;;;;;;12.88;3.35;;;11.20;52.20;;;;;;4099442;28;20062;-79
2022/04/25 10:00:38;;;;;;;4.70;2.42;;;11.20;51.50;;;;;;4097640;28;20023;-78
2022/04/25 10:02:40;;;;;;;5.40;3.00;;;11.30;50.50;;;;;;4098375;28;21107;-79
2022/04/25 10:04:40;;;;;;;3.58;2.38;;;11.30;50.40;;;;;;4099249;28;20055;-78
2022/04/25 10:06:43;;;;;;;6.63;2.58;;;11.40;51.50;;;;;;4097180;28;20708;-79
2022/04/25 10:08:44;;;;;;;4.28;2.58;;;11.30;51.60;;;;;;4099002;28;20023;-79
2022/04/25 10:10:47;;;;;;;6.80;3.40;;;11.30;50.20;;;;;;4101166;28;20555;-79
2022/04/25 10:12:49;;;;;;;5.95;3.05;;;11.30;49.90;;;;;;4099347;28;20091;-79
2022/04/25 10:14:50;;;;;;;6.57;2.47;;;11.30;49.80;;;;;;4110075;28;20066;-79
2022/04/25 10:16:52;;;;;;;7.70;3.60;;;11.30;50.30;;;;;;4099611;28;20053;-78
2022/04/25 10:18:54;;;;;;;8.73;3.17;;;11.40;51.20;;;;;;4100306;28;20145;-79
2022/04/25 10:20:54;;;;;;;6.43;3.60;;;11.30;50.70;;;;;;4114323;28;20033;-79
2022/04/25 10:22:57;;;;;;;6.97;3.17;;;11.40;50.90;;;;;;4113750;28;20127;-79
2022/04/25 10:24:57;;;;;;;8.35;3.10;;;11.30;49.90;;;;;;4098888;28;20193;-79
2022/04/25 10:27:06;;;;;;;4.55;2.90;;;11.30;49.80;;;;;;4097424;28;20031;-79
2022/04/25 10:29:13;;;;;;;5.30;2.90;;;11.40;50.40;;;;;;4095992;28;20098;-79
2022/04/25 10:31:22;;;;;;;4.68;2.97;;;11.40;50.50;;;;;;4092475;28;20043;-78
2022/04/25 10:33:23;;;;;;;5.88;3.00;;;11.50;49.40;;;;;;4090248;28;20039;-79
2022/04/25 10:35:32;;;;;;;8.98;3.05;;;11.50;49.40;;;;;;4091575;28;20043;-79
2022/04/25 10:37:37;;;;;;;8.93;2.95;;;11.60;49.50;;;;;;4095893;28;20434;-79
2022/04/25 10:39:47;;;;;;;5.90;3.20;;;11.60;49.40;;;;;;4115691;28;20022;-79
2022/04/25 10:44:18;;;;;;;6.00;3.63;;;11.70;50.40;;;;;;4091492;28;20114;-78
2022/04/25 10:46:19;;;;;;;4.70;3.30;;;11.70;50.00;;;;;;4093231;28;20344;-80
2022/04/25 10:48:20;;;;;;;5.30;3.10;;;11.80;49.80;;;;;;4092738;28;20035;-79
2022/04/25 10:50:23;;;;;;;6.13;3.35;;;11.80;50.20;;;;;;4095985;28;20024;-79
2022/04/25 10:52:30;;;;;;;;;;;12.00;50.70;;;;;;4107708;28;20086;-79
2022/04/25 10:54:48;;;;;;;5.10;2.90;;;12.10;50.70;;;;;;4096405;28;20041;-79
2022/04/25 10:57:15;;;;;;;9.02;3.35;;;12.10;49.40;;;;;;4097488;28;20027;-79
2022/04/25 10:59:26;;;;;;;6.45;3.42;;;12.20;49.90;;;;;;4093063;28;20079;-79
2022/04/25 11:01:31;;;;;;;5.55;3.10;;;12.20;48.70;;;;;;4086911;28;20035;-79
2022/04/25 11:03:32;;;;;;;10.30;4.00;;;12.30;49.20;;;;;;4094466;28;20637;-79
2022/04/25 11:05:38;;;;;;;4.55;2.90;;;12.30;47.80;;;;;;4097412;28;20111;-77
2022/04/25 11:07:40;;;;;;;6.95;3.17;;;12.40;48.20;;;;;;4096014;28;20073;-78
2022/04/25 11:09:41;;;;;;;5.88;3.58;;;12.40;48.70;;;;;;4096304;28;20098;-78
2022/04/25 11:11:53;;;;;;;5.45;3.60;;;12.40;48.20;;;;;;4093417;28;20080;-78